AAL8895 KBOS-KORD
Flight info
| Callsign | AAL8895 |
|---|---|
| Flight time | 1h 59m |
| Altitude | 34000 |
| Route | HYLND7 HYLND CAM Q822 FNT WYNDE3 |
| Aircraft | B738/M-SDE2E3FGHIRWXY/LB1 |
Departure
| Time | 2026-05-06 17:24 |
|---|---|
| Airport | Boston Logan International Airport (KBOS) |
Arrival
| Time | 2026-05-06 19:24 |
|---|---|
| Airport | Chicago O'Hare International Airport (KORD) |
| Time | Latitude | Longitude | Altitude | Speed | Heading |
|---|---|---|---|---|---|
| 2026-05-06 16:51 | 42.36291 | -71.01618 | 28 ft | 0 kts | 338° |
| 2026-05-06 16:53 | 42.36290 | -71.01618 | 28 ft | 0 kts | 338° |
| 2026-05-06 17:14 | 42.36274 | -71.01609 | 30 ft | 2 kts | 338° |
| 2026-05-06 17:14 | 42.36253 | -71.01596 | 28 ft | 4 kts | 326° |
| 2026-05-06 17:15 | 42.36233 | -71.01572 | 28 ft | 4 kts | 303° |
| 2026-05-06 17:15 | 42.36224 | -71.01551 | 29 ft | 0 kts | 290° |
| 2026-05-06 17:18 | 42.36225 | -71.01559 | 29 ft | 3 kts | 273° |
| 2026-05-06 17:18 | 42.36222 | -71.01572 | 30 ft | 3 kts | 244° |
| 2026-05-06 17:18 | 42.36199 | -71.01578 | 27 ft | 0 kts | 147° |
| 2026-05-06 17:19 | 42.36186 | -71.01521 | 26 ft | 11 kts | 98° |
| 2026-05-06 17:19 | 42.36195 | -71.01417 | 27 ft | 11 kts | 49° |
| 2026-05-06 17:19 | 42.36268 | -71.01368 | 24 ft | 13 kts | 18° |
| 2026-05-06 17:19 | 42.36363 | -71.01322 | 26 ft | 16 kts | 22° |
| 2026-05-06 17:20 | 42.36475 | -71.01267 | 27 ft | 18 kts | 20° |
| 2026-05-06 17:20 | 42.36602 | -71.01206 | 27 ft | 20 kts | 19° |
| 2026-05-06 17:20 | 42.36728 | -71.01147 | 25 ft | 16 kts | 15° |
| 2026-05-06 17:20 | 42.36826 | -71.01195 | 25 ft | 15 kts | 316° |
| 2026-05-06 17:21 | 42.36879 | -71.01220 | 27 ft | 3 kts | 17° |
| 2026-05-06 17:21 | 42.36914 | -71.01191 | 25 ft | 16 kts | 38° |
| 2026-05-06 17:21 | 42.37026 | -71.01086 | 26 ft | 22 kts | 22° |
| 2026-05-06 17:21 | 42.37169 | -71.01009 | 25 ft | 23 kts | 30° |
| 2026-05-06 17:22 | 42.37307 | -71.00905 | 24 ft | 23 kts | 22° |
| 2026-05-06 17:22 | 42.37462 | -71.00829 | 26 ft | 25 kts | 20° |
| 2026-05-06 17:22 | 42.37627 | -71.00749 | 26 ft | 24 kts | 19° |
| 2026-05-06 17:22 | 42.37751 | -71.00690 | 25 ft | 18 kts | 19° |
| 2026-05-06 17:23 | 42.37836 | -71.00595 | 26 ft | 15 kts | 92° |
| 2026-05-06 17:23 | 42.37791 | -71.00491 | 25 ft | 13 kts | 159° |
| 2026-05-06 17:23 | 42.37691 | -71.00523 | 26 ft | 25 kts | 199° |
| 2026-05-06 17:23 | 42.37284 | -71.00719 | 29 ft | 103 kts | 200° |
| 2026-05-06 17:24 | 42.36387 | -71.01156 | 141 ft | 160 kts | 200° |
| 2026-05-06 17:24 | 42.35366 | -71.01734 | 1091 ft | 162 kts | 202° |
| 2026-05-06 17:24 | 42.34310 | -71.02324 | 2123 ft | 162 kts | 200° |
| 2026-05-06 17:24 | 42.33255 | -71.02859 | 3162 ft | 166 kts | 199° |
| 2026-05-06 17:25 | 42.32010 | -71.02897 | 3577 ft | 200 kts | 159° |
| 2026-05-06 17:25 | 42.31021 | -71.01515 | 4175 ft | 218 kts | 116° |
| 2026-05-06 17:25 | 42.30465 | -70.99575 | 4927 ft | 224 kts | 118° |
| 2026-05-06 17:25 | 42.29840 | -70.97624 | 5768 ft | 232 kts | 105° |
| 2026-05-06 17:26 | 42.30031 | -70.95426 | 6628 ft | 250 kts | 68° |
| 2026-05-06 17:26 | 42.31123 | -70.93401 | 7007 ft | 282 kts | 56° |
| 2026-05-06 17:26 | 42.31870 | -70.90955 | 7770 ft | 285 kts | 81° |
| 2026-05-06 17:26 | 42.32264 | -70.88308 | 8726 ft | 290 kts | 81° |
| 2026-05-06 17:27 | 42.32669 | -70.85655 | 9657 ft | 294 kts | 81° |
| 2026-05-06 17:27 | 42.33082 | -70.82930 | 10575 ft | 298 kts | 81° |
| 2026-05-06 17:27 | 42.33496 | -70.80167 | 11488 ft | 302 kts | 81° |
| 2026-05-06 17:27 | 42.34075 | -70.77409 | 12383 ft | 311 kts | 65° |
| 2026-05-06 17:28 | 42.35473 | -70.75138 | 13183 ft | 326 kts | 38° |
| 2026-05-06 17:28 | 42.37594 | -70.73758 | 13447 ft | 354 kts | 18° |
| 2026-05-06 17:28 | 42.40055 | -70.72792 | 13664 ft | 381 kts | 16° |
| 2026-05-06 17:28 | 42.42707 | -70.71910 | 13820 ft | 405 kts | 8° |
| 2026-05-06 17:29 | 42.45589 | -70.71940 | 14042 ft | 424 kts | 350° |
| 2026-05-06 17:29 | 42.48423 | -70.73148 | 14581 ft | 430 kts | 334° |
| 2026-05-06 17:29 | 42.51069 | -70.75050 | 15272 ft | 432 kts | 326° |
| 2026-05-06 17:29 | 42.53389 | -70.77549 | 15950 ft | 432 kts | 314° |
| 2026-05-06 17:30 | 42.55400 | -70.80583 | 16605 ft | 434 kts | 305° |
| 2026-05-06 17:30 | 42.57094 | -70.83987 | 17217 ft | 437 kts | 301° |
| 2026-05-06 17:30 | 42.58750 | -70.87466 | 17803 ft | 441 kts | 301° |
| 2026-05-06 17:30 | 42.60420 | -70.90968 | 18369 ft | 444 kts | 301° |
| 2026-05-06 17:31 | 42.62118 | -70.94501 | 18921 ft | 448 kts | 301° |
| 2026-05-06 17:31 | 42.63836 | -70.98054 | 19453 ft | 452 kts | 301° |
| 2026-05-06 17:31 | 42.65572 | -71.01630 | 19971 ft | 455 kts | 301° |
| 2026-05-06 17:31 | 42.67304 | -71.05193 | 20466 ft | 458 kts | 301° |
| 2026-05-06 17:32 | 42.69066 | -71.08820 | 20952 ft | 461 kts | 301° |
| 2026-05-06 17:32 | 42.70860 | -71.12518 | 21411 ft | 465 kts | 301° |
| 2026-05-06 17:32 | 42.72644 | -71.16201 | 21850 ft | 468 kts | 301° |
| 2026-05-06 17:32 | 42.74416 | -71.19863 | 22270 ft | 471 kts | 301° |
| 2026-05-06 17:33 | 42.76204 | -71.23604 | 22677 ft | 473 kts | 299° |
| 2026-05-06 17:33 | 42.77674 | -71.27607 | 23041 ft | 473 kts | 290° |
| 2026-05-06 17:33 | 42.78672 | -71.31865 | 23412 ft | 473 kts | 281° |
| 2026-05-06 17:33 | 42.79218 | -71.36284 | 23773 ft | 474 kts | 276° |
| 2026-05-06 17:34 | 42.79679 | -71.40738 | 24106 ft | 476 kts | 276° |
| 2026-05-06 17:34 | 42.80136 | -71.45227 | 24416 ft | 479 kts | 276° |
| 2026-05-06 17:34 | 42.80599 | -71.49724 | 24724 ft | 481 kts | 276° |
| 2026-05-06 17:34 | 42.81075 | -71.54244 | 25025 ft | 484 kts | 276° |
| 2026-05-06 17:35 | 42.81563 | -71.58788 | 25315 ft | 486 kts | 276° |
| 2026-05-06 17:35 | 42.82057 | -71.63346 | 25585 ft | 487 kts | 276° |
| 2026-05-06 17:35 | 42.82555 | -71.67922 | 25837 ft | 489 kts | 276° |
| 2026-05-06 17:36 | 42.83551 | -71.77085 | 26395 ft | 489 kts | 276° |
| 2026-05-06 17:36 | 42.84046 | -71.81671 | 26739 ft | 488 kts | 276° |
| 2026-05-06 17:36 | 42.84537 | -71.86234 | 27084 ft | 486 kts | 276° |
| 2026-05-06 17:36 | 42.85025 | -71.90803 | 27439 ft | 486 kts | 276° |
| 2026-05-06 17:37 | 42.85504 | -71.95301 | 27779 ft | 485 kts | 276° |
| 2026-05-06 17:37 | 42.85986 | -71.99846 | 28128 ft | 484 kts | 276° |
| 2026-05-06 17:37 | 42.86465 | -72.04382 | 28476 ft | 484 kts | 276° |
| 2026-05-06 17:37 | 42.86943 | -72.08930 | 28840 ft | 483 kts | 276° |
| 2026-05-06 17:38 | 42.87416 | -72.13450 | 29196 ft | 482 kts | 276° |
| 2026-05-06 17:38 | 42.87888 | -72.17972 | 29558 ft | 481 kts | 276° |
| 2026-05-06 17:38 | 42.88358 | -72.22495 | 29925 ft | 481 kts | 276° |
| 2026-05-06 17:38 | 42.88825 | -72.27007 | 30298 ft | 480 kts | 276° |
| 2026-05-06 17:39 | 42.89289 | -72.31508 | 30673 ft | 479 kts | 276° |
| 2026-05-06 17:39 | 42.89752 | -72.36013 | 31051 ft | 478 kts | 276° |
| 2026-05-06 17:39 | 42.90204 | -72.40437 | 31417 ft | 477 kts | 276° |
| 2026-05-06 17:39 | 42.90661 | -72.44921 | 31780 ft | 476 kts | 276° |
| 2026-05-06 17:40 | 42.91115 | -72.49390 | 32141 ft | 476 kts | 276° |
| 2026-05-06 17:40 | 42.91567 | -72.53860 | 32497 ft | 475 kts | 276° |
| 2026-05-06 17:40 | 42.92016 | -72.58319 | 32850 ft | 474 kts | 276° |
| 2026-05-06 17:40 | 42.92462 | -72.62762 | 33261 ft | 472 kts | 276° |
| 2026-05-06 17:41 | 42.92903 | -72.67184 | 33712 ft | 469 kts | 276° |
| 2026-05-06 17:41 | 42.93343 | -72.71603 | 33878 ft | 471 kts | 276° |
| 2026-05-06 17:41 | 42.94217 | -72.80447 | 33893 ft | 468 kts | 276° |
| 2026-05-06 17:42 | 42.95079 | -72.89229 | 33897 ft | 465 kts | 275° |
| 2026-05-06 17:42 | 42.95927 | -72.97944 | 33886 ft | 465 kts | 275° |
| 2026-05-06 17:43 | 42.96771 | -73.06688 | 33889 ft | 464 kts | 275° |
| 2026-05-06 17:43 | 42.97607 | -73.15427 | 33885 ft | 464 kts | 275° |
| 2026-05-06 17:44 | 42.98439 | -73.24185 | 33893 ft | 465 kts | 275° |
| 2026-05-06 17:44 | 42.99260 | -73.32897 | 33884 ft | 465 kts | 275° |
| 2026-05-06 17:45 | 42.99707 | -73.41695 | 33889 ft | 464 kts | 270° |
| 2026-05-06 17:45 | 42.99865 | -73.50523 | 33891 ft | 465 kts | 269° |
| 2026-05-06 17:46 | 43.00027 | -73.59366 | 33885 ft | 465 kts | 270° |
| 2026-05-06 17:46 | 43.00221 | -73.68201 | 33887 ft | 465 kts | 270° |
| 2026-05-06 17:47 | 43.00422 | -73.76990 | 33887 ft | 466 kts | 270° |
| 2026-05-06 17:47 | 43.00618 | -73.85840 | 33887 ft | 466 kts | 270° |
| 2026-05-06 17:48 | 43.00805 | -73.94698 | 33886 ft | 466 kts | 270° |
| 2026-05-06 17:48 | 43.00985 | -74.03560 | 33890 ft | 466 kts | 269° |
| 2026-05-06 17:49 | 43.01158 | -74.12409 | 33887 ft | 466 kts | 269° |
| 2026-05-06 17:49 | 43.01325 | -74.21272 | 33888 ft | 466 kts | 269° |
| 2026-05-06 17:50 | 43.01535 | -74.30065 | 33887 ft | 466 kts | 271° |
| 2026-05-06 17:50 | 43.01951 | -74.38906 | 33888 ft | 466 kts | 272° |
| 2026-05-06 17:51 | 43.02388 | -74.47761 | 33887 ft | 466 kts | 271° |
| 2026-05-06 17:51 | 43.02790 | -74.56607 | 33886 ft | 466 kts | 271° |
| 2026-05-06 17:52 | 43.03107 | -74.63955 | 33886 ft | 466 kts | 271° |
| 2026-05-06 17:52 | 43.03477 | -74.72791 | 33888 ft | 466 kts | 271° |
| 2026-05-06 17:53 | 43.03842 | -74.81633 | 33890 ft | 466 kts | 271° |
| 2026-05-06 17:53 | 43.04201 | -74.90495 | 33883 ft | 466 kts | 271° |
| 2026-05-06 17:54 | 43.04554 | -74.99345 | 33885 ft | 466 kts | 271° |
| 2026-05-06 17:54 | 43.04897 | -75.08128 | 33887 ft | 466 kts | 271° |
| 2026-05-06 17:55 | 43.05235 | -75.16968 | 33890 ft | 466 kts | 271° |
| 2026-05-06 17:55 | 43.05568 | -75.25814 | 33886 ft | 465 kts | 271° |
| 2026-05-06 17:56 | 43.05873 | -75.34654 | 33889 ft | 465 kts | 270° |
| 2026-05-06 17:56 | 43.06115 | -75.43490 | 33889 ft | 465 kts | 270° |
| 2026-05-06 17:57 | 43.06345 | -75.52320 | 33887 ft | 465 kts | 270° |
| 2026-05-06 17:57 | 43.06577 | -75.61163 | 33886 ft | 465 kts | 270° |
| 2026-05-06 17:58 | 43.06806 | -75.70009 | 33891 ft | 465 kts | 270° |
| 2026-05-06 17:58 | 43.07027 | -75.78787 | 33890 ft | 465 kts | 270° |
| 2026-05-06 17:59 | 43.07242 | -75.87633 | 33887 ft | 465 kts | 270° |
| 2026-05-06 17:59 | 43.07451 | -75.96474 | 33892 ft | 465 kts | 270° |
| 2026-05-06 18:00 | 43.07653 | -76.05338 | 33888 ft | 465 kts | 270° |
| 2026-05-06 18:00 | 43.07848 | -76.14178 | 33889 ft | 465 kts | 270° |
| 2026-05-06 18:01 | 43.08036 | -76.23039 | 33892 ft | 465 kts | 270° |
| 2026-05-06 18:01 | 43.08217 | -76.31855 | 33885 ft | 465 kts | 269° |
| 2026-05-06 18:02 | 43.08391 | -76.40700 | 33887 ft | 465 kts | 269° |
| 2026-05-06 18:02 | 43.08560 | -76.49576 | 33890 ft | 466 kts | 269° |
| 2026-05-06 18:03 | 43.08721 | -76.58433 | 33888 ft | 466 kts | 269° |
| 2026-05-06 18:03 | 43.08876 | -76.67229 | 33886 ft | 466 kts | 269° |
| 2026-05-06 18:04 | 43.09015 | -76.76085 | 33889 ft | 465 kts | 269° |
| 2026-05-06 18:04 | 43.09139 | -76.84939 | 33892 ft | 465 kts | 269° |
| 2026-05-06 18:05 | 43.09256 | -76.93798 | 33887 ft | 465 kts | 269° |
| 2026-05-06 18:05 | 43.09369 | -77.02661 | 33892 ft | 465 kts | 269° |
| 2026-05-06 18:06 | 43.09475 | -77.11518 | 33893 ft | 465 kts | 269° |
| 2026-05-06 18:06 | 43.09574 | -77.20326 | 33892 ft | 465 kts | 269° |
| 2026-05-06 18:07 | 43.09666 | -77.29182 | 33888 ft | 465 kts | 269° |
| 2026-05-06 18:07 | 43.09752 | -77.38034 | 33889 ft | 465 kts | 269° |
| 2026-05-06 18:08 | 43.09831 | -77.46837 | 33886 ft | 465 kts | 269° |
| 2026-05-06 18:08 | 43.09903 | -77.55704 | 33890 ft | 465 kts | 269° |
| 2026-05-06 18:09 | 43.09968 | -77.64549 | 33892 ft | 465 kts | 269° |
| 2026-05-06 18:09 | 43.10026 | -77.73405 | 33886 ft | 465 kts | 268° |
| 2026-05-06 18:10 | 43.10078 | -77.82257 | 33890 ft | 465 kts | 268° |
| 2026-05-06 18:10 | 43.10123 | -77.91105 | 33889 ft | 465 kts | 268° |
| 2026-05-06 18:11 | 43.10161 | -77.99951 | 33887 ft | 465 kts | 268° |
| 2026-05-06 18:11 | 43.10192 | -78.08742 | 33894 ft | 465 kts | 268° |
| 2026-05-06 18:12 | 43.10216 | -78.17589 | 33886 ft | 465 kts | 268° |
| 2026-05-06 18:12 | 43.10234 | -78.26453 | 33887 ft | 465 kts | 268° |
| 2026-05-06 18:13 | 43.10244 | -78.35301 | 33887 ft | 465 kts | 268° |
| 2026-05-06 18:13 | 43.10248 | -78.44146 | 33890 ft | 465 kts | 268° |
| 2026-05-06 18:14 | 43.10246 | -78.52987 | 33888 ft | 465 kts | 268° |
| 2026-05-06 18:14 | 43.10236 | -78.61812 | 33888 ft | 465 kts | 268° |
| 2026-05-06 18:15 | 43.10219 | -78.70665 | 33886 ft | 465 kts | 268° |
| 2026-05-06 18:15 | 43.10196 | -78.79529 | 33894 ft | 465 kts | 268° |
| 2026-05-06 18:16 | 43.10166 | -78.88374 | 33893 ft | 465 kts | 268° |
| 2026-05-06 18:16 | 43.10130 | -78.97216 | 33891 ft | 465 kts | 268° |
| 2026-05-06 18:17 | 43.10092 | -79.06012 | 33889 ft | 465 kts | 268° |
| 2026-05-06 18:17 | 43.10057 | -79.14861 | 33891 ft | 465 kts | 267° |
| 2026-05-06 18:18 | 43.09964 | -79.23704 | 33886 ft | 465 kts | 267° |
| 2026-05-06 18:18 | 43.09862 | -79.32551 | 33891 ft | 465 kts | 267° |
| 2026-05-06 18:19 | 43.09760 | -79.41392 | 33891 ft | 465 kts | 267° |
| 2026-05-06 18:19 | 43.09654 | -79.50238 | 33888 ft | 465 kts | 267° |
| 2026-05-06 18:20 | 43.09543 | -79.59094 | 33888 ft | 465 kts | 267° |
| 2026-05-06 18:20 | 43.09425 | -79.67931 | 33888 ft | 465 kts | 267° |
| 2026-05-06 18:21 | 43.09299 | -79.76768 | 33887 ft | 465 kts | 267° |
| 2026-05-06 18:21 | 43.09168 | -79.85558 | 33886 ft | 465 kts | 267° |
| 2026-05-06 18:22 | 43.09029 | -79.94397 | 33894 ft | 465 kts | 266° |
| 2026-05-06 18:22 | 43.08883 | -80.03234 | 33891 ft | 465 kts | 266° |
| 2026-05-06 18:23 | 43.08730 | -80.12093 | 33889 ft | 465 kts | 266° |
| 2026-05-06 18:23 | 43.08571 | -80.20939 | 33887 ft | 465 kts | 266° |
| 2026-05-06 18:24 | 43.08405 | -80.29775 | 33888 ft | 465 kts | 266° |
| 2026-05-06 18:24 | 43.08233 | -80.38540 | 33887 ft | 464 kts | 266° |
| 2026-05-06 18:25 | 43.08053 | -80.47385 | 33886 ft | 464 kts | 266° |
| 2026-05-06 18:25 | 43.07867 | -80.56224 | 33889 ft | 464 kts | 266° |
| 2026-05-06 18:26 | 43.07674 | -80.65058 | 33890 ft | 464 kts | 266° |
| 2026-05-06 18:26 | 43.07474 | -80.73900 | 33893 ft | 464 kts | 266° |
| 2026-05-06 18:27 | 43.07268 | -80.82677 | 33889 ft | 464 kts | 266° |
| 2026-05-06 18:27 | 43.07055 | -80.91503 | 33889 ft | 464 kts | 266° |
| 2026-05-06 18:28 | 43.06835 | -81.00340 | 33890 ft | 464 kts | 266° |
| 2026-05-06 18:28 | 43.06609 | -81.09178 | 33887 ft | 465 kts | 266° |
| 2026-05-06 18:29 | 43.06379 | -81.18011 | 33891 ft | 465 kts | 266° |
| 2026-05-06 18:29 | 43.06147 | -81.26840 | 33887 ft | 465 kts | 266° |
| 2026-05-06 18:30 | 43.05909 | -81.35615 | 33887 ft | 464 kts | 266° |
| 2026-05-06 18:30 | 43.05664 | -81.44445 | 33890 ft | 464 kts | 266° |
| 2026-05-06 18:31 | 43.05411 | -81.53265 | 33887 ft | 464 kts | 266° |
| 2026-05-06 18:31 | 43.05152 | -81.62088 | 33887 ft | 464 kts | 265° |
| 2026-05-06 18:32 | 43.04885 | -81.70917 | 33887 ft | 464 kts | 265° |
| 2026-05-06 18:32 | 43.04613 | -81.79733 | 33888 ft | 464 kts | 265° |
| 2026-05-06 18:33 | 43.04334 | -81.88566 | 33888 ft | 464 kts | 265° |
| 2026-05-06 18:33 | 43.04045 | -81.97390 | 33888 ft | 464 kts | 265° |
| 2026-05-06 18:34 | 43.03747 | -82.06157 | 33890 ft | 464 kts | 265° |
| 2026-05-06 18:34 | 43.03441 | -82.14983 | 33887 ft | 464 kts | 265° |
| 2026-05-06 18:35 | 43.03130 | -82.23798 | 33893 ft | 464 kts | 265° |
| 2026-05-06 18:35 | 43.02813 | -82.32607 | 33885 ft | 464 kts | 265° |
| 2026-05-06 18:36 | 43.02481 | -82.41422 | 33894 ft | 464 kts | 265° |
| 2026-05-06 18:36 | 43.02134 | -82.50192 | 33889 ft | 464 kts | 265° |
| 2026-05-06 18:37 | 43.01850 | -82.57579 | 33888 ft | 464 kts | 265° |
| 2026-05-06 18:37 | 43.01450 | -82.67813 | 33888 ft | 464 kts | 265° |
| 2026-05-06 18:38 | 43.01097 | -82.76619 | 33891 ft | 464 kts | 265° |
| 2026-05-06 18:38 | 43.00737 | -82.85428 | 33888 ft | 464 kts | 265° |
| 2026-05-06 18:39 | 43.00432 | -82.92748 | 33893 ft | 464 kts | 265° |
| 2026-05-06 18:40 | 42.99807 | -83.07409 | 33887 ft | 464 kts | 264° |
| 2026-05-06 18:40 | 42.99488 | -83.14739 | 33887 ft | 464 kts | 264° |
| 2026-05-06 18:41 | 42.99098 | -83.23542 | 33891 ft | 464 kts | 264° |
| 2026-05-06 18:41 | 42.98700 | -83.32368 | 33886 ft | 464 kts | 264° |
| 2026-05-06 18:42 | 42.98297 | -83.41172 | 33887 ft | 464 kts | 264° |
| 2026-05-06 18:42 | 42.97890 | -83.49913 | 33890 ft | 464 kts | 264° |
| 2026-05-06 18:43 | 42.97473 | -83.58712 | 33886 ft | 464 kts | 264° |
| 2026-05-06 18:43 | 42.97051 | -83.67516 | 33886 ft | 464 kts | 264° |
| 2026-05-06 18:44 | 42.96600 | -83.76313 | 33886 ft | 464 kts | 263° |
| 2026-05-06 18:44 | 42.95811 | -83.85037 | 33892 ft | 463 kts | 260° |
| 2026-05-06 18:45 | 42.94901 | -83.93739 | 33887 ft | 463 kts | 260° |
| 2026-05-06 18:45 | 42.94019 | -84.02447 | 33887 ft | 463 kts | 260° |
| 2026-05-06 18:46 | 42.93165 | -84.11098 | 33892 ft | 463 kts | 260° |
| 2026-05-06 18:46 | 42.92305 | -84.19818 | 33886 ft | 463 kts | 260° |
| 2026-05-06 18:47 | 42.91439 | -84.28520 | 33890 ft | 463 kts | 260° |
| 2026-05-06 18:47 | 42.90565 | -84.37219 | 33888 ft | 463 kts | 260° |
| 2026-05-06 18:48 | 42.89683 | -84.45929 | 33885 ft | 463 kts | 260° |
| 2026-05-06 18:48 | 42.88802 | -84.54574 | 33895 ft | 463 kts | 260° |
| 2026-05-06 18:49 | 42.87906 | -84.63289 | 33893 ft | 463 kts | 260° |
| 2026-05-06 18:49 | 42.87008 | -84.71981 | 33889 ft | 463 kts | 260° |
| 2026-05-06 18:50 | 42.86105 | -84.80673 | 33889 ft | 463 kts | 260° |
| 2026-05-06 18:50 | 42.85200 | -84.89325 | 33885 ft | 463 kts | 260° |
| 2026-05-06 18:51 | 42.84281 | -84.98012 | 33891 ft | 463 kts | 260° |
| 2026-05-06 18:51 | 42.83353 | -85.06700 | 33890 ft | 463 kts | 260° |
| 2026-05-06 18:52 | 42.82420 | -85.15384 | 33892 ft | 463 kts | 259° |
| 2026-05-06 18:52 | 42.81488 | -85.24007 | 33893 ft | 463 kts | 259° |
| 2026-05-06 18:53 | 42.80543 | -85.32688 | 33886 ft | 463 kts | 259° |
| 2026-05-06 18:53 | 42.79593 | -85.41358 | 33890 ft | 463 kts | 259° |
| 2026-05-06 18:54 | 42.78630 | -85.50017 | 33888 ft | 462 kts | 258° |
| 2026-05-06 18:54 | 42.77185 | -85.58542 | 33893 ft | 461 kts | 253° |
| 2026-05-06 18:55 | 42.75572 | -85.67003 | 33885 ft | 461 kts | 254° |
| 2026-05-06 18:55 | 42.74050 | -85.75432 | 33888 ft | 461 kts | 254° |
| 2026-05-06 18:56 | 42.72516 | -85.83924 | 33894 ft | 461 kts | 254° |
| 2026-05-06 18:56 | 42.70973 | -85.92402 | 33888 ft | 461 kts | 254° |
| 2026-05-06 18:57 | 42.69427 | -86.00866 | 33890 ft | 461 kts | 254° |
| 2026-05-06 18:57 | 42.67870 | -86.09344 | 33885 ft | 461 kts | 254° |
| 2026-05-06 18:58 | 42.66319 | -86.17749 | 33888 ft | 461 kts | 254° |
| 2026-05-06 18:58 | 42.64753 | -86.26208 | 33890 ft | 461 kts | 254° |
| 2026-05-06 18:59 | 42.63180 | -86.34657 | 33889 ft | 461 kts | 254° |
| 2026-05-06 18:59 | 42.61602 | -86.43099 | 33889 ft | 461 kts | 254° |
| 2026-05-06 19:00 | 42.60015 | -86.51556 | 33888 ft | 461 kts | 254° |
| 2026-05-06 19:00 | 42.58436 | -86.59935 | 33886 ft | 461 kts | 254° |
| 2026-05-06 19:01 | 42.56841 | -86.68371 | 33886 ft | 461 kts | 253° |
| 2026-05-06 19:01 | 42.55077 | -86.76725 | 33891 ft | 460 kts | 249° |
| 2026-05-06 19:02 | 42.52813 | -86.84796 | 33890 ft | 459 kts | 247° |
| 2026-05-06 19:02 | 42.50521 | -86.92895 | 33771 ft | 461 kts | 248° |
| 2026-05-06 19:02 | 42.49392 | -86.96998 | 33137 ft | 461 kts | 248° |
| 2026-05-06 19:03 | 42.48291 | -87.01049 | 32446 ft | 456 kts | 248° |
| 2026-05-06 19:03 | 42.47201 | -87.05063 | 31714 ft | 452 kts | 248° |
| 2026-05-06 19:03 | 42.46116 | -87.09044 | 30958 ft | 450 kts | 248° |
| 2026-05-06 19:03 | 42.45031 | -87.13007 | 30159 ft | 447 kts | 248° |
| 2026-05-06 19:04 | 42.43946 | -87.16960 | 29332 ft | 446 kts | 248° |
| 2026-05-06 19:04 | 42.42867 | -87.20888 | 28471 ft | 444 kts | 248° |
| 2026-05-06 19:04 | 42.41805 | -87.24752 | 27606 ft | 441 kts | 248° |
| 2026-05-06 19:04 | 42.40733 | -87.28646 | 26704 ft | 447 kts | 248° |
| 2026-05-06 19:05 | 42.39619 | -87.32677 | 25740 ft | 466 kts | 248° |
| 2026-05-06 19:05 | 42.38478 | -87.36803 | 25008 ft | 467 kts | 248° |
| 2026-05-06 19:05 | 42.37357 | -87.40862 | 24291 ft | 454 kts | 248° |
| 2026-05-06 19:05 | 42.36263 | -87.44816 | 23607 ft | 443 kts | 248° |
| 2026-05-06 19:06 | 42.35193 | -87.48672 | 22937 ft | 432 kts | 248° |
| 2026-05-06 19:06 | 42.34005 | -87.52358 | 22262 ft | 422 kts | 237° |
| 2026-05-06 19:06 | 42.32172 | -87.55368 | 21652 ft | 410 kts | 221° |
| 2026-05-06 19:06 | 42.29942 | -87.57746 | 21031 ft | 409 kts | 216° |
| 2026-05-06 19:07 | 42.27624 | -87.60106 | 20379 ft | 426 kts | 216° |
| 2026-05-06 19:07 | 42.25262 | -87.62543 | 19696 ft | 424 kts | 217° |
| 2026-05-06 19:07 | 42.22964 | -87.64950 | 19020 ft | 413 kts | 217° |
| 2026-05-06 19:07 | 42.20730 | -87.67304 | 18372 ft | 402 kts | 217° |
| 2026-05-06 19:08 | 42.18548 | -87.69598 | 17739 ft | 393 kts | 217° |
| 2026-05-06 19:08 | 42.16435 | -87.71817 | 17129 ft | 388 kts | 217° |
| 2026-05-06 19:08 | 42.14326 | -87.74026 | 16518 ft | 381 kts | 217° |
| 2026-05-06 19:08 | 42.12222 | -87.76236 | 15911 ft | 388 kts | 218° |
| 2026-05-06 19:09 | 42.10372 | -87.78964 | 15253 ft | 401 kts | 237° |
| 2026-05-06 19:09 | 42.09275 | -87.82386 | 14649 ft | 396 kts | 250° |
| 2026-05-06 19:09 | 42.08561 | -87.85922 | 14017 ft | 387 kts | 258° |
| 2026-05-06 19:09 | 42.08535 | -87.89519 | 13411 ft | 384 kts | 277° |
| 2026-05-06 19:10 | 42.09411 | -87.92891 | 12815 ft | 384 kts | 297° |
| 2026-05-06 19:10 | 42.11089 | -87.95668 | 12276 ft | 384 kts | 317° |
| 2026-05-06 19:10 | 42.13379 | -87.97489 | 11947 ft | 390 kts | 339° |
| 2026-05-06 19:10 | 42.16055 | -87.98194 | 11711 ft | 405 kts | 358° |
| 2026-05-06 19:11 | 42.18827 | -87.97707 | 11463 ft | 403 kts | 17° |
| 2026-05-06 19:11 | 42.21284 | -87.96080 | 11189 ft | 380 kts | 37° |
| 2026-05-06 19:11 | 42.23042 | -87.93636 | 10916 ft | 350 kts | 59° |
| 2026-05-06 19:11 | 42.23948 | -87.90750 | 10632 ft | 322 kts | 80° |
| 2026-05-06 19:12 | 42.24310 | -87.87854 | 10261 ft | 305 kts | 85° |
| 2026-05-06 19:12 | 42.24581 | -87.85095 | 9880 ft | 294 kts | 85° |
| 2026-05-06 19:12 | 42.24840 | -87.82359 | 9409 ft | 290 kts | 86° |
| 2026-05-06 19:12 | 42.25092 | -87.79667 | 8817 ft | 287 kts | 86° |
| 2026-05-06 19:13 | 42.25338 | -87.77041 | 8263 ft | 284 kts | 86° |
| 2026-05-06 19:13 | 42.25586 | -87.74404 | 7686 ft | 282 kts | 86° |
| 2026-05-06 19:13 | 42.25832 | -87.71790 | 7117 ft | 279 kts | 86° |
| 2026-05-06 19:13 | 42.26077 | -87.69214 | 6676 ft | 273 kts | 86° |
| 2026-05-06 19:14 | 42.26318 | -87.66707 | 6272 ft | 266 kts | 86° |
| 2026-05-06 19:14 | 42.26350 | -87.64271 | 5847 ft | 255 kts | 106° |
| 2026-05-06 19:14 | 42.25590 | -87.62219 | 5446 ft | 241 kts | 136° |
| 2026-05-06 19:14 | 42.24160 | -87.61039 | 5168 ft | 257 kts | 166° |
| 2026-05-06 19:15 | 42.22361 | -87.60813 | 4944 ft | 262 kts | 181° |
| 2026-05-06 19:15 | 42.20552 | -87.60869 | 4681 ft | 255 kts | 182° |
| 2026-05-06 19:15 | 42.18794 | -87.60955 | 4426 ft | 250 kts | 182° |
| 2026-05-06 19:15 | 42.17073 | -87.61045 | 4169 ft | 245 kts | 182° |
| 2026-05-06 19:16 | 42.15385 | -87.61135 | 3955 ft | 239 kts | 182° |
| 2026-05-06 19:16 | 42.13778 | -87.61222 | 3888 ft | 228 kts | 183° |
| 2026-05-06 19:16 | 42.12233 | -87.61305 | 3877 ft | 224 kts | 183° |
| 2026-05-06 19:16 | 42.10569 | -87.61395 | 3907 ft | 242 kts | 182° |
| 2026-05-06 19:17 | 42.08951 | -87.61483 | 3882 ft | 220 kts | 183° |
| 2026-05-06 19:17 | 42.07470 | -87.61561 | 3884 ft | 210 kts | 183° |
| 2026-05-06 19:17 | 42.05999 | -87.61640 | 3884 ft | 213 kts | 183° |
| 2026-05-06 19:17 | 42.04510 | -87.61720 | 3880 ft | 215 kts | 183° |
| 2026-05-06 19:18 | 42.03005 | -87.61800 | 3877 ft | 217 kts | 183° |
| 2026-05-06 19:18 | 42.01499 | -87.61882 | 3870 ft | 213 kts | 182° |
| 2026-05-06 19:18 | 42.00050 | -87.61960 | 3865 ft | 207 kts | 183° |
| 2026-05-06 19:18 | 41.98684 | -87.62444 | 3871 ft | 203 kts | 211° |
| 2026-05-06 19:19 | 41.97700 | -87.63686 | 3879 ft | 187 kts | 225° |
| 2026-05-06 19:19 | 41.96897 | -87.64958 | 3863 ft | 174 kts | 234° |
| 2026-05-06 19:19 | 41.96657 | -87.66522 | 3887 ft | 174 kts | 268° |
| 2026-05-06 19:19 | 41.96663 | -87.68119 | 3877 ft | 169 kts | 263° |
| 2026-05-06 19:20 | 41.96638 | -87.69677 | 3870 ft | 163 kts | 264° |
| 2026-05-06 19:20 | 41.96633 | -87.71173 | 3772 ft | 160 kts | 264° |
| 2026-05-06 19:20 | 41.96627 | -87.72695 | 3512 ft | 166 kts | 264° |
| 2026-05-06 19:20 | 41.96622 | -87.74263 | 3203 ft | 169 kts | 264° |
| 2026-05-06 19:21 | 41.96617 | -87.75842 | 2910 ft | 164 kts | 264° |
| 2026-05-06 19:21 | 41.96615 | -87.77243 | 2897 ft | 138 kts | 264° |
| 2026-05-06 19:21 | 41.96610 | -87.78534 | 2600 ft | 135 kts | 263° |
| 2026-05-06 19:21 | 41.96605 | -87.79773 | 2320 ft | 132 kts | 263° |
| 2026-05-06 19:22 | 41.96599 | -87.80992 | 2105 ft | 136 kts | 263° |
| 2026-05-06 19:22 | 41.96595 | -87.82314 | 1837 ft | 145 kts | 263° |
| 2026-05-06 19:22 | 41.96591 | -87.83673 | 1564 ft | 146 kts | 264° |
| 2026-05-06 19:22 | 41.96588 | -87.85042 | 1304 ft | 146 kts | 264° |
| 2026-05-06 19:23 | 41.96588 | -87.86358 | 1156 ft | 139 kts | 263° |
| 2026-05-06 19:23 | 41.96576 | -87.87654 | 947 ft | 138 kts | 265° |
| 2026-05-06 19:23 | 41.96580 | -87.88927 | 758 ft | 134 kts | 264° |
| 2026-05-06 19:23 | 41.96571 | -87.90137 | 679 ft | 120 kts | 266° |
| 2026-05-06 19:24 | 41.96570 | -87.91034 | 669 ft | 49 kts | 270° |
| 2026-05-06 19:24 | 41.96582 | -87.91270 | 667 ft | 25 kts | 294° |
| 2026-05-06 19:24 | 41.96637 | -87.91433 | 668 ft | 7 kts | 297° |
| 2026-05-06 19:24 | 41.96659 | -87.91481 | 668 ft | 2 kts | 319° |
| 2026-05-06 19:25 | 41.96685 | -87.91530 | 668 ft | 18 kts | 301° |
| 2026-05-06 19:25 | 41.96735 | -87.91697 | 667 ft | 20 kts | 278° |
| 2026-05-06 19:25 | 41.96736 | -87.91876 | 668 ft | 19 kts | 269° |
| 2026-05-06 19:25 | 41.96737 | -87.91991 | 668 ft | 19 kts | 272° |
| 2026-05-06 19:26 | 41.96771 | -87.92078 | 667 ft | 6 kts | 345° |
| 2026-05-06 19:26 | 41.96795 | -87.92083 | 667 ft | 0 kts | 350° |
| 2026-05-06 19:26 | 41.96801 | -87.92085 | 667 ft | 2 kts | 350° |
| 2026-05-06 19:26 | 41.96818 | -87.92088 | 667 ft | 3 kts | 355° |
| 2026-05-06 19:27 | 41.96856 | -87.92086 | 667 ft | 5 kts | 4° |
| 2026-05-06 19:27 | 41.96881 | -87.92085 | 667 ft | 6 kts | 0° |
| 2026-05-06 19:27 | 41.96940 | -87.92083 | 668 ft | 11 kts | 1° |
| 2026-05-06 19:27 | 41.97028 | -87.92071 | 668 ft | 10 kts | 42° |
| 2026-05-06 19:28 | 41.97038 | -87.92000 | 668 ft | 8 kts | 89° |
| 2026-05-06 19:28 | 41.97039 | -87.91895 | 668 ft | 15 kts | 88° |
| 2026-05-06 19:28 | 41.97039 | -87.91727 | 668 ft | 14 kts | 88° |
| 2026-05-06 19:28 | 41.97086 | -87.91630 | 668 ft | 14 kts | 6° |
| 2026-05-06 19:29 | 41.97186 | -87.91629 | 668 ft | 11 kts | 359° |
| 2026-05-06 19:29 | 41.97237 | -87.91593 | 668 ft | 9 kts | 63° |
| 2026-05-06 19:29 | 41.97245 | -87.91496 | 668 ft | 12 kts | 87° |
| 2026-05-06 19:29 | 41.97249 | -87.91380 | 668 ft | 13 kts | 78° |
| 2026-05-06 19:30 | 41.97296 | -87.91280 | 668 ft | 13 kts | 50° |
| 2026-05-06 19:30 | 41.97356 | -87.91186 | 667 ft | 14 kts | 49° |
| 2026-05-06 19:30 | 41.97417 | -87.91104 | 668 ft | 10 kts | 37° |
| 2026-05-06 19:30 | 41.97479 | -87.91060 | 668 ft | 10 kts | 0° |
| 2026-05-06 19:31 | 41.97532 | -87.91004 | 668 ft | 11 kts | 65° |
| 2026-05-06 19:31 | 41.97562 | -87.90899 | 668 ft | 13 kts | 69° |
| 2026-05-06 19:31 | 41.97594 | -87.90782 | 666 ft | 2 kts | 70° |
| 2026-05-06 19:32 | 41.97593 | -87.90764 | 666 ft | 2 kts | 110° |
| 2026-05-06 19:32 | 41.97570 | -87.90749 | 667 ft | 4 kts | 162° |
| 2026-05-06 19:32 | 41.97558 | -87.90743 | 668 ft | 1 kts | 161° |
| 2026-05-06 19:32 | 41.97548 | -87.90738 | 668 ft | 1 kts | 160° |
| 2026-05-06 19:33 | 41.97546 | -87.90737 | 668 ft | 0 kts | 160° |